sensor_id;sensor_type;location;lat;lon;timestamp;pressure;altitude;pressure_sealevel;temperature;humidity
44309;BME280;30022;55.846;37.340;2023-06-22T00:01:48;46659.66;;;-143.51;98.44
44309;BME280;30022;55.846;37.340;2023-06-22T00:04:14;46645.84;;;-143.51;99.07
44309;BME280;30022;55.846;37.340;2023-06-22T00:06:39;46671.50;;;-143.51;98.67
44309;BME280;30022;55.846;37.340;2023-06-22T00:09:05;46673.50;;;-143.51;98.87
44309;BME280;30022;55.846;37.340;2023-06-22T00:11:32;46665.59;;;-143.51;97.83
44309;BME280;30022;55.846;37.340;2023-06-22T00:13:58;46663.63;;;-143.51;98.40
44309;BME280;30022;55.846;37.340;2023-06-22T00:16:24;46651.75;;;-143.51;97.51
44309;BME280;30022;55.846;37.340;2023-06-22T00:18:49;46665.59;;;-143.51;97.88
44309;BME280;30022;55.846;37.340;2023-06-22T00:21:15;46647.81;;;-143.51;97.96
44309;BME280;30022;55.846;37.340;2023-06-22T00:23:41;46645.84;;;-143.51;98.33
44309;BME280;30022;55.846;37.340;2023-06-22T00:26:06;46661.63;;;-143.51;99.24
44309;BME280;30022;55.846;37.340;2023-06-22T00:28:32;46661.63;;;-143.51;97.78
44309;BME280;30022;55.846;37.340;2023-06-22T00:30:59;46634.00;;;-143.51;98.02
44309;BME280;30022;55.846;37.340;2023-06-22T00:33:26;46659.66;;;-143.51;99.10
44309;BME280;30022;55.846;37.340;2023-06-22T00:35:51;46673.50;;;-143.51;99.21
44309;BME280;30022;55.846;37.340;2023-06-22T00:38:18;46643.88;;;-143.51;98.43
44309;BME280;30022;55.846;37.340;2023-06-22T00:40:44;46647.81;;;-143.51;96.96
44309;BME280;30022;55.846;37.340;2023-06-22T00:43:10;46634.00;;;-143.51;97.06
44309;BME280;30022;55.846;37.340;2023-06-22T00:45:35;46661.63;;;-143.51;97.06
44309;BME280;30022;55.846;37.340;2023-06-22T00:48:01;46635.97;;;-143.51;97.77
44309;BME280;30022;55.846;37.340;2023-06-22T00:50:27;46675.47;;;-143.51;97.72
44309;BME280;30022;55.846;37.340;2023-06-22T00:52:57;46634.00;;;-143.51;98.41
44309;BME280;30022;55.846;37.340;2023-06-22T00:55:24;46661.63;;;-143.51;98.18
44309;BME280;30022;55.846;37.340;2023-06-22T00:57:51;46649.78;;;-143.51;97.98
44309;BME280;30022;55.846;37.340;2023-06-22T01:00:22;46661.63;;;-143.51;98.30
44309;BME280;30022;55.846;37.340;2023-06-22T01:02:50;46665.59;;;-143.51;97.62
44309;BME280;30022;55.846;37.340;2023-06-22T01:05:17;46651.75;;;-143.51;98.13
44309;BME280;30022;55.846;37.340;2023-06-22T01:08:00;46657.69;;;-143.51;98.14
44309;BME280;30022;55.846;37.340;2023-06-22T01:10:32;46645.84;;;-143.51;98.03
44309;BME280;30022;55.846;37.340;2023-06-22T01:13:01;46643.88;;;-143.51;98.41
44309;BME280;30022;55.846;37.340;2023-06-22T01:15:28;46610.28;;;-143.51;97.02
44309;BME280;30022;55.846;37.340;2023-06-22T01:17:56;46657.69;;;-143.51;98.06
44309;BME280;30022;55.846;37.340;2023-06-22T01:20:22;46657.69;;;-143.51;98.99
44309;BME280;30022;55.846;37.340;2023-06-22T01:22:59;46649.78;;;-143.51;99.23
44309;BME280;30022;55.846;37.340;2023-06-22T01:25:31;46657.69;;;-143.51;98.35
44309;BME280;30022;55.846;37.340;2023-06-22T01:28:05;46665.59;;;-143.51;98.15
44309;BME280;30022;55.846;37.340;2023-06-22T01:30:41;46669.53;;;-143.51;98.55
44309;BME280;30022;55.846;37.340;2023-06-22T01:33:07;46665.59;;;-143.51;98.79
44309;BME280;30022;55.846;37.340;2023-06-22T01:35:34;46665.59;;;-143.51;97.79
44309;BME280;30022;55.846;37.340;2023-06-22T01:38:00;46653.75;;;-143.51;98.42
44309;BME280;30022;55.846;37.340;2023-06-22T01:40:26;46669.53;;;-143.51;98.57
44309;BME280;30022;55.846;37.340;2023-06-22T01:42:53;46630.03;;;-143.51;97.51
44309;BME280;30022;55.846;37.340;2023-06-22T01:45:19;46669.53;;;-143.51;99.09
44309;BME280;30022;55.846;37.340;2023-06-22T01:47:44;46691.25;;;-143.51;100.00
44309;BME280;30022;55.846;37.340;2023-06-22T01:50:10;46655.72;;;-143.51;100.00
44309;BME280;30022;55.846;37.340;2023-06-22T01:52:36;46661.63;;;-143.51;99.87
44309;BME280;30022;55.846;37.340;2023-06-22T01:55:01;46667.56;;;-143.51;99.63
44309;BME280;30022;55.846;37.340;2023-06-22T01:57:28;46665.59;;;-143.51;99.08
44309;BME280;30022;55.846;37.340;2023-06-22T01:59:59;46677.44;;;-143.51;98.51
44309;BME280;30022;55.846;37.340;2023-06-22T02:02:25;46667.56;;;-143.51;99.62
44309;BME280;30022;55.846;37.340;2023-06-22T02:05:16;46689.28;;;-143.51;100.00
44309;BME280;30022;55.846;37.340;2023-06-22T02:07:49;46659.66;;;-143.51;99.62
44309;BME280;30022;55.846;37.340;2023-06-22T02:10:18;46671.50;;;-143.51;100.00
44309;BME280;30022;55.846;37.340;2023-06-22T02:12:45;46685.34;;;-143.51;100.00
44309;BME280;30022;55.846;37.340;2023-06-22T02:15:11;46677.44;;;-143.51;100.00
44309;BME280;30022;55.846;37.340;2023-06-22T02:17:38;46681.38;;;-143.51;100.00
44309;BME280;30022;55.846;37.340;2023-06-22T02:20:03;46667.56;;;-143.51;100.00
44309;BME280;30022;55.846;37.340;2023-06-22T02:22:32;46693.25;;;-143.51;100.00
44309;BME280;30022;55.846;37.340;2023-06-22T02:24:58;46697.19;;;-143.51;100.00
44309;BME280;30022;55.846;37.340;2023-06-22T02:27:24;46671.50;;;-143.51;100.00
44309;BME280;30022;55.846;37.340;2023-06-22T02:29:49;46665.59;;;-143.51;100.00
44309;BME280;30022;55.846;37.340;2023-06-22T02:32:15;46677.44;;;-143.51;100.00
44309;BME280;30022;55.846;37.340;2023-06-22T02:34:45;46701.13;;;-143.51;100.00
44309;BME280;30022;55.846;37.340;2023-06-22T02:37:15;46693.25;;;-143.51;100.00
44309;BME280;30022;55.846;37.340;2023-06-22T02:39:40;46707.06;;;-143.51;100.00
44309;BME280;30022;55.846;37.340;2023-06-22T02:42:07;46683.38;;;-143.51;100.00
44309;BME280;30022;55.846;37.340;2023-06-22T02:44:32;46685.34;;;-143.51;100.00
44309;BME280;30022;55.846;37.340;2023-06-22T02:46:58;46724.84;;;-143.51;100.00
44309;BME280;30022;55.846;37.340;2023-06-22T02:49:24;46705.09;;;-143.51;100.00
44309;BME280;30022;55.846;37.340;2023-06-22T02:51:50;46720.88;;;-143.51;100.00
44309;BME280;30022;55.846;37.340;2023-06-22T02:54:18;46705.09;;;-143.51;100.00
44309;BME280;30022;55.846;37.340;2023-06-22T02:56:46;46713.00;;;-143.51;100.00
44309;BME280;30022;55.846;37.340;2023-06-22T02:59:11;46703.13;;;-143.51;100.00
44309;BME280;30022;55.846;37.340;2023-06-22T03:01:38;46714.97;;;-143.51;100.00
44309;BME280;30022;55.846;37.340;2023-06-22T03:04:14;46718.91;;;-143.51;100.00
44309;BME280;30022;55.846;37.340;2023-06-22T03:06:40;46711.00;;;-143.51;100.00
44309;BME280;30022;55.846;37.340;2023-06-22T03:09:07;46713.00;;;-143.51;100.00
44309;BME280;30022;55.846;37.340;2023-06-22T03:11:33;46720.88;;;-143.51;100.00
44309;BME280;30022;55.846;37.340;2023-06-22T03:14:02;46724.84;;;-143.51;100.00
44309;BME280;30022;55.846;37.340;2023-06-22T03:16:28;46736.69;;;-143.51;100.00
44309;BME280;30022;55.846;37.340;2023-06-22T03:18:55;46722.88;;;-143.51;100.00
44309;BME280;30022;55.846;37.340;2023-06-22T03:21:26;46738.66;;;-143.51;100.00
44309;BME280;30022;55.846;37.340;2023-06-22T03:23:52;46711.00;;;-143.51;100.00
44309;BME280;30022;55.846;37.340;2023-06-22T03:26:17;46736.69;;;-143.51;100.00
44309;BME280;30022;55.846;37.340;2023-06-22T03:28:44;46711.00;;;-143.51;100.00
44309;BME280;30022;55.846;37.340;2023-06-22T03:31:10;46726.81;;;-143.51;100.00
44309;BME280;30022;55.846;37.340;2023-06-22T03:33:37;46713.00;;;-143.51;100.00
44309;BME280;30022;55.846;37.340;2023-06-22T03:36:03;46744.59;;;-143.51;100.00
44309;BME280;30022;55.846;37.340;2023-06-22T03:38:29;46685.34;;;-143.51;100.00
44309;BME280;30022;55.846;37.340;2023-06-22T03:40:56;46748.53;;;-143.51;100.00
44309;BME280;30022;55.846;37.340;2023-06-22T03:43:22;46744.59;;;-143.51;100.00
44309;BME280;30022;55.846;37.340;2023-06-22T03:45:48;46732.75;;;-143.51;100.00
44309;BME280;30022;55.846;37.340;2023-06-22T03:48:13;46748.53;;;-143.51;100.00
44309;BME280;30022;55.846;37.340;2023-06-22T03:50:39;46734.72;;;-143.51;100.00
44309;BME280;30022;55.846;37.340;2023-06-22T03:53:04;46738.66;;;-143.51;100.00
44309;BME280;30022;55.846;37.340;2023-06-22T03:55:30;46752.47;;;-143.51;100.00
44309;BME280;30022;55.846;37.340;2023-06-22T03:57:55;46764.34;;;-143.51;100.00
44309;BME280;30022;55.846;37.340;2023-06-22T04:00:23;46732.75;;;-143.51;100.00
44309;BME280;30022;55.846;37.340;2023-06-22T04:02:48;46730.75;;;-143.51;100.00
44309;BME280;30022;55.846;37.340;2023-06-22T04:05:14;46728.78;;;-143.51;100.00
44309;BME280;30022;55.846;37.340;2023-06-22T04:07:40;46740.63;;;-143.51;100.00
44309;BME280;30022;55.846;37.340;2023-06-22T04:10:05;46740.63;;;-143.51;100.00
44309;BME280;30022;55.846;37.340;2023-06-22T04:12:31;46760.38;;;-143.51;100.00
44309;BME280;30022;55.846;37.340;2023-06-22T04:14:56;46772.22;;;-143.51;100.00
44309;BME280;30022;55.846;37.340;2023-06-22T04:17:22;46752.47;;;-143.51;100.00
44309;BME280;30022;55.846;37.340;2023-06-22T04:19:50;46748.53;;;-143.51;100.00
44309;BME280;30022;55.846;37.340;2023-06-22T04:22:16;46766.31;;;-143.51;100.00
44309;BME280;30022;55.846;37.340;2023-06-22T04:24:41;46758.41;;;-143.51;100.00
44309;BME280;30022;55.846;37.340;2023-06-22T04:27:07;46748.53;;;-143.51;100.00
44309;BME280;30022;55.846;37.340;2023-06-22T04:29:32;46772.22;;;-143.51;100.00
44309;BME280;30022;55.846;37.340;2023-06-22T04:31:58;46760.38;;;-143.51;100.00
44309;BME280;30022;55.846;37.340;2023-06-22T04:34:28;46790.00;;;-143.51;100.00
44309;BME280;30022;55.846;37.340;2023-06-22T04:36:54;46786.06;;;-143.51;100.00
44309;BME280;30022;55.846;37.340;2023-06-22T04:39:20;46791.97;;;-143.51;100.00
44309;BME280;30022;55.846;37.340;2023-06-22T04:41:45;46776.19;;;-143.51;100.00
44309;BME280;30022;55.846;37.340;2023-06-22T04:44:14;46770.25;;;-143.51;100.00
44309;BME280;30022;55.846;37.340;2023-06-22T04:46:52;46795.94;;;-143.51;100.00
44309;BME280;30022;55.846;37.340;2023-06-22T04:49:25;46809.75;;;-143.51;100.00
44309;BME280;30022;55.846;37.340;2023-06-22T04:51:58;46805.81;;;-143.51;100.00
44309;BME280;30022;55.846;37.340;2023-06-22T04:54:24;46795.94;;;-143.51;100.00
44309;BME280;30022;55.846;37.340;2023-06-22T04:56:49;46768.28;;;-143.51;100.00
44309;BME280;30022;55.846;37.340;2023-06-22T04:59:22;46815.69;;;-143.51;100.00
44309;BME280;30022;55.846;37.340;2023-06-22T05:01:47;46799.88;;;-143.51;100.00
44309;BME280;30022;55.846;37.340;2023-06-22T05:04:13;46827.53;;;-143.51;100.00
44309;BME280;30022;55.846;37.340;2023-06-22T05:06:39;46803.84;;;-143.51;100.00
44309;BME280;30022;55.846;37.340;2023-06-22T05:09:05;46799.88;;;-143.51;100.00
44309;BME280;30022;55.846;37.340;2023-06-22T05:11:31;46799.88;;;-143.51;100.00
44309;BME280;30022;55.846;37.340;2023-06-22T05:13:56;46813.72;;;-143.51;100.00
44309;BME280;30022;55.846;37.340;2023-06-22T05:16:22;46786.06;;;-143.51;100.00
44309;BME280;30022;55.846;37.340;2023-06-22T05:18:54;46825.56;;;-143.51;100.00
44309;BME280;30022;55.846;37.340;2023-06-22T05:21:24;46815.69;;;-143.51;100.00
44309;BME280;30022;55.846;37.340;2023-06-22T05:23:51;46829.50;;;-143.51;100.00
44309;BME280;30022;55.846;37.340;2023-06-22T05:26:17;46811.72;;;-143.51;100.00
44309;BME280;30022;55.846;37.340;2023-06-22T05:28:42;46799.88;;;-143.51;100.00
44309;BME280;30022;55.846;37.340;2023-06-22T05:31:12;46807.78;;;-143.51;100.00
44309;BME280;30022;55.846;37.340;2023-06-22T05:33:38;46805.81;;;-143.51;100.00
44309;BME280;30022;55.846;37.340;2023-06-22T05:36:05;46791.97;;;-143.51;100.00
44309;BME280;30022;55.846;37.340;2023-06-22T05:38:31;46788.03;;;-143.51;100.00
44309;BME280;30022;55.846;37.340;2023-06-22T05:40:56;46819.63;;;-143.51;100.00
44309;BME280;30022;55.846;37.340;2023-06-22T05:43:22;46825.56;;;-143.51;100.00
44309;BME280;30022;55.846;37.340;2023-06-22T05:45:47;46819.63;;;-143.51;100.00
44309;BME280;30022;55.846;37.340;2023-06-22T05:48:13;46843.34;;;-143.51;100.00
44309;BME280;30022;55.846;37.340;2023-06-22T05:50:38;46817.66;;;-143.51;100.00
44309;BME280;30022;55.846;37.340;2023-06-22T05:53:04;46827.53;;;-143.51;100.00
44309;BME280;30022;55.846;37.340;2023-06-22T05:55:32;46837.41;;;-143.51;100.00
44309;BME280;30022;55.846;37.340;2023-06-22T05:57:58;46825.56;;;-143.51;100.00
44309;BME280;30022;55.846;37.340;2023-06-22T06:00:23;46817.66;;;-143.51;99.70
44309;BME280;30022;55.846;37.340;2023-06-22T06:02:49;46786.06;;;-143.51;100.00
44309;BME280;30022;55.846;37.340;2023-06-22T06:05:15;46835.44;;;-143.51;99.40
44309;BME280;30022;55.846;37.340;2023-06-22T06:07:41;46801.84;;;-143.51;98.80
44309;BME280;30022;55.846;37.340;2023-06-22T06:10:07;46809.75;;;-143.51;97.44
44309;BME280;30022;55.846;37.340;2023-06-22T06:12:33;46793.97;;;-143.51;98.90
44309;BME280;30022;55.846;37.340;2023-06-22T06:14:58;46823.59;;;-143.51;98.08
44309;BME280;30022;55.846;37.340;2023-06-22T06:17:24;46805.81;;;-143.51;97.52
44309;BME280;30022;55.846;37.340;2023-06-22T06:19:49;46799.88;;;-143.51;96.50
44309;BME280;30022;55.846;37.340;2023-06-22T06:22:15;46791.97;;;-143.51;95.30
44309;BME280;30022;55.846;37.340;2023-06-22T06:24:41;46811.72;;;-143.51;94.48
44309;BME280;30022;55.846;37.340;2023-06-22T06:27:07;46811.72;;;-143.51;95.18
44309;BME280;30022;55.846;37.340;2023-06-22T06:29:33;46821.59;;;-143.51;93.93
44309;BME280;30022;55.846;37.340;2023-06-22T06:31:58;46807.78;;;-143.51;92.03
44309;BME280;30022;55.846;37.340;2023-06-22T06:34:24;46813.72;;;-143.51;90.36
44309;BME280;30022;55.846;37.340;2023-06-22T06:36:49;46827.53;;;-143.51;90.84
44309;BME280;30022;55.846;37.340;2023-06-22T06:39:15;46817.66;;;-143.51;90.82
44309;BME280;30022;55.846;37.340;2023-06-22T06:41:41;46811.72;;;-143.51;90.61
44309;BME280;30022;55.846;37.340;2023-06-22T06:44:14;46797.91;;;-143.51;89.57
44309;BME280;30022;55.846;37.340;2023-06-22T06:46:39;46827.53;;;-143.51;89.27
44309;BME280;30022;55.846;37.340;2023-06-22T06:49:05;46807.78;;;-143.51;88.53
44309;BME280;30022;55.846;37.340;2023-06-22T06:51:30;46841.34;;;-143.51;88.86
44309;BME280;30022;55.846;37.340;2023-06-22T06:53:56;46835.44;;;-143.51;86.50
44309;BME280;30022;55.846;37.340;2023-06-22T06:56:21;46795.94;;;-143.51;85.88
44309;BME280;30022;55.846;37.340;2023-06-22T06:58:49;46825.56;;;-143.51;86.17
44309;BME280;30022;55.846;37.340;2023-06-22T07:01:15;46803.84;;;-143.51;85.14
44309;BME280;30022;55.846;37.340;2023-06-22T07:03:43;46805.81;;;-143.51;85.13
44309;BME280;30022;55.846;37.340;2023-06-22T07:06:08;46825.56;;;-143.51;85.29
44309;BME280;30022;55.846;37.340;2023-06-22T07:08:34;46851.22;;;-143.51;86.41
44309;BME280;30022;55.846;37.340;2023-06-22T07:11:01;46829.50;;;-143.51;85.39
44309;BME280;30022;55.846;37.340;2023-06-22T07:13:27;46827.53;;;-143.51;85.25
44309;BME280;30022;55.846;37.340;2023-06-22T07:15:53;46839.38;;;-143.51;85.63
44309;BME280;30022;55.846;37.340;2023-06-22T07:18:18;46847.28;;;-143.51;85.09
44309;BME280;30022;55.846;37.340;2023-06-22T07:20:44;46859.13;;;-143.51;84.49
44309;BME280;30022;55.846;37.340;2023-06-22T07:23:09;46867.03;;;-143.51;84.70
44309;BME280;30022;55.846;37.340;2023-06-22T07:25:35;46851.22;;;-143.51;84.62
44309;BME280;30022;55.846;37.340;2023-06-22T07:28:01;46859.13;;;-143.51;84.62
44309;BME280;30022;55.846;37.340;2023-06-22T07:30:28;46855.19;;;-143.51;83.32
44309;BME280;30022;55.846;37.340;2023-06-22T07:32:54;46867.03;;;-143.51;84.11
44309;BME280;30022;55.846;37.340;2023-06-22T07:35:20;46857.16;;;-143.51;83.72
44309;BME280;30022;55.846;37.340;2023-06-22T07:37:45;46845.31;;;-143.51;83.98
44309;BME280;30022;55.846;37.340;2023-06-22T07:40:11;46849.25;;;-143.51;83.75
44309;BME280;30022;55.846;37.340;2023-06-22T07:42:37;46914.44;;;-143.51;83.67
44309;BME280;30022;55.846;37.340;2023-06-22T07:45:03;46867.03;;;-143.51;81.66
44309;BME280;30022;55.846;37.340;2023-06-22T07:47:29;46878.88;;;-143.51;82.64
44309;BME280;30022;55.846;37.340;2023-06-22T07:49:55;46876.91;;;-143.51;83.05
44309;BME280;30022;55.846;37.340;2023-06-22T07:52:23;46888.75;;;-143.51;83.40
44309;BME280;30022;55.846;37.340;2023-06-22T07:54:49;46849.25;;;-143.51;83.13
44309;BME280;30022;55.846;37.340;2023-06-22T07:57:14;46898.63;;;-143.51;82.60
44309;BME280;30022;55.846;37.340;2023-06-22T07:59:40;46880.84;;;-143.51;82.10
44309;BME280;30022;55.846;37.340;2023-06-22T08:02:06;46884.81;;;-143.51;81.27
44309;BME280;30022;55.846;37.340;2023-06-22T08:04:31;46882.84;;;-143.51;81.40
44309;BME280;30022;55.846;37.340;2023-06-22T08:06:59;46884.81;;;-143.51;81.34
44309;BME280;30022;55.846;37.340;2023-06-22T08:09:24;46863.09;;;-143.51;82.07
44309;BME280;30022;55.846;37.340;2023-06-22T08:11:50;46886.78;;;-143.51;81.50
44309;BME280;30022;55.846;37.340;2023-06-22T08:14:15;46910.47;;;-143.51;81.33
44309;BME280;30022;55.846;37.340;2023-06-22T08:16:41;46900.59;;;-143.51;80.75
44309;BME280;30022;55.846;37.340;2023-06-22T08:19:07;46912.47;;;-143.51;80.98
44309;BME280;30022;55.846;37.340;2023-06-22T08:21:33;46896.66;;;-143.51;81.28
44309;BME280;30022;55.846;37.340;2023-06-22T08:23:58;46930.22;;;-143.51;81.91
44309;BME280;30022;55.846;37.340;2023-06-22T08:26:24;46920.34;;;-143.51;82.71
44309;BME280;30022;55.846;37.340;2023-06-22T08:28:49;46904.56;;;-143.51;82.83
44309;BME280;30022;55.846;37.340;2023-06-22T08:31:15;46918.38;;;-143.51;82.71
44309;BME280;30022;55.846;37.340;2023-06-22T08:33:40;46906.53;;;-143.51;82.82
44309;BME280;30022;55.846;37.340;2023-06-22T08:36:08;46884.81;;;-143.51;83.68
44309;BME280;30022;55.846;37.340;2023-06-22T08:38:36;46904.56;;;-143.51;84.80
44309;BME280;30022;55.846;37.340;2023-06-22T08:41:01;46886.78;;;-143.51;84.42
44309;BME280;30022;55.846;37.340;2023-06-22T08:43:27;46886.78;;;-143.51;83.73
44309;BME280;30022;55.846;37.340;2023-06-22T08:45:52;46890.72;;;-143.51;83.31
44309;BME280;30022;55.846;37.340;2023-06-22T08:48:18;46870.97;;;-143.51;83.63
44309;BME280;30022;55.846;37.340;2023-06-22T08:50:43;46886.78;;;-143.51;84.27
44309;BME280;30022;55.846;37.340;2023-06-22T08:53:09;46878.88;;;-143.51;84.58
44309;BME280;30022;55.846;37.340;2023-06-22T08:55:34;46878.88;;;-143.51;84.52
44309;BME280;30022;55.846;37.340;2023-06-22T08:58:00;46859.13;;;-143.51;84.82
44309;BME280;30022;55.846;37.340;2023-06-22T09:00:26;46888.75;;;-143.51;84.40
44309;BME280;30022;55.846;37.340;2023-06-22T09:02:52;46888.75;;;-143.51;84.22
44309;BME280;30022;55.846;37.340;2023-06-22T09:05:17;46896.66;;;-143.51;84.05
44309;BME280;30022;55.846;37.340;2023-06-22T09:07:43;46898.63;;;-143.51;84.47
44309;BME280;30022;55.846;37.340;2023-06-22T09:10:09;46928.25;;;-143.51;84.54
44309;BME280;30022;55.846;37.340;2023-06-22T09:12:34;46888.75;;;-143.51;84.05
44309;BME280;30022;55.846;37.340;2023-06-22T09:15:02;46894.69;;;-143.51;83.33
44309;BME280;30022;55.846;37.340;2023-06-22T09:17:30;46904.56;;;-143.51;83.05
44309;BME280;30022;55.846;37.340;2023-06-22T09:19:55;46878.88;;;-143.51;83.35
44309;BME280;30022;55.846;37.340;2023-06-22T09:22:21;46878.88;;;-143.51;83.65
44309;BME280;30022;55.846;37.340;2023-06-22T09:24:46;46878.88;;;-143.51;84.13
44309;BME280;30022;55.846;37.340;2023-06-22T09:27:12;46870.97;;;-143.51;84.57
44309;BME280;30022;55.846;37.340;2023-06-22T09:29:37;46874.94;;;-143.51;84.68
44309;BME280;30022;55.846;37.340;2023-06-22T09:32:03;46894.69;;;-143.51;84.35
44309;BME280;30022;55.846;37.340;2023-06-22T09:34:29;46884.81;;;-143.51;83.43
44309;BME280;30022;55.846;37.340;2023-06-22T09:36:56;46876.91;;;-143.51;83.78
44309;BME280;30022;55.846;37.340;2023-06-22T09:39:22;46882.84;;;-143.51;84.05
44309;BME280;30022;55.846;37.340;2023-06-22T09:41:48;46902.59;;;-143.51;84.17
44309;BME280;30022;55.846;37.340;2023-06-22T09:44:13;46878.88;;;-143.51;84.62
44309;BME280;30022;55.846;37.340;2023-06-22T09:46:39;46896.66;;;-143.51;84.05
44309;BME280;30022;55.846;37.340;2023-06-22T09:49:04;46867.03;;;-143.51;84.24
44309;BME280;30022;55.846;37.340;2023-06-22T09:51:30;46922.34;;;-143.51;83.67
44309;BME280;30022;55.846;37.340;2023-06-22T09:53:55;46906.53;;;-143.51;83.54
44309;BME280;30022;55.846;37.340;2023-06-22T09:56:21;46886.78;;;-143.51;84.17
44309;BME280;30022;55.846;37.340;2023-06-22T09:58:46;46918.38;;;-143.51;83.88
44309;BME280;30022;55.846;37.340;2023-06-22T10:01:13;46930.22;;;-143.51;83.85
44309;BME280;30022;55.846;37.340;2023-06-22T10:03:41;46888.75;;;-143.51;83.28
44309;BME280;30022;55.846;37.340;2023-06-22T10:06:07;46946.03;;;-143.51;82.27
44309;BME280;30022;55.846;37.340;2023-06-22T10:08:34;46930.22;;;-143.51;82.53
44309;BME280;30022;55.846;37.340;2023-06-22T10:10:59;46948.00;;;-143.51;82.43
44309;BME280;30022;55.846;37.340;2023-06-22T10:13:25;46969.72;;;-143.51;80.51
44309;BME280;30022;55.846;37.340;2023-06-22T10:15:50;46922.34;;;-143.51;79.40
44309;BME280;30022;55.846;37.340;2023-06-22T10:18:17;46951.97;;;-143.51;80.13
44309;BME280;30022;55.846;37.340;2023-06-22T10:20:43;46957.88;;;-143.51;80.55
44309;BME280;30022;55.846;37.340;2023-06-22T10:23:09;46934.19;;;-143.51;81.68
44309;BME280;30022;55.846;37.340;2023-06-22T10:25:34;46949.97;;;-143.51;79.03
44309;BME280;30022;55.846;37.340;2023-06-22T10:28:00;46961.84;;;-143.51;80.06
44309;BME280;30022;55.846;37.340;2023-06-22T10:30:25;46942.09;;;-143.51;79.77
44309;BME280;30022;55.846;37.340;2023-06-22T10:32:51;46963.81;;;-143.51;79.41
44309;BME280;30022;55.846;37.340;2023-06-22T10:35:17;46948.00;;;-143.51;79.69
44309;BME280;30022;55.846;37.340;2023-06-22T10:37:43;46969.72;;;-143.51;79.32
44309;BME280;30022;55.846;37.340;2023-06-22T10:40:08;46969.72;;;-143.51;78.90
44309;BME280;30022;55.846;37.340;2023-06-22T10:42:34;46987.50;;;-143.51;79.01
44309;BME280;30022;55.846;37.340;2023-06-22T10:45:00;47005.28;;;-143.51;78.17
44309;BME280;30022;55.846;37.340;2023-06-22T10:47:25;46961.84;;;-143.51;77.70
44309;BME280;30022;55.846;37.340;2023-06-22T10:49:51;46973.69;;;-143.51;78.03
44309;BME280;30022;55.846;37.340;2023-06-22T10:52:16;46961.84;;;-143.51;77.73
44309;BME280;30022;55.846;37.340;2023-06-22T10:54:42;46953.94;;;-143.51;77.20
44309;BME280;30022;55.846;37.340;2023-06-22T10:57:07;46959.84;;;-143.51;77.48
44309;BME280;30022;55.846;37.340;2023-06-22T10:59:33;46963.81;;;-143.51;77.42
44309;BME280;30022;55.846;37.340;2023-06-22T11:01:58;46981.59;;;-143.51;77.00
44309;BME280;30022;55.846;37.340;2023-06-22T11:04:24;46979.59;;;-143.51;77.18
44309;BME280;30022;55.846;37.340;2023-06-22T11:06:50;46993.44;;;-143.51;76.84
44309;BME280;30022;55.846;37.340;2023-06-22T11:09:16;47050.72;;;-143.51;76.05
44309;BME280;30022;55.846;37.340;2023-06-22T11:11:50;47034.91;;;-143.51;75.93
44309;BME280;30022;55.846;37.340;2023-06-22T11:14:16;47003.31;;;-143.51;75.98
44309;BME280;30022;55.846;37.340;2023-06-22T11:16:41;47017.13;;;-143.51;76.78
44309;BME280;30022;55.846;37.340;2023-06-22T11:19:07;47023.06;;;-143.51;76.01
44309;BME280;30022;55.846;37.340;2023-06-22T11:21:32;47011.22;;;-143.51;75.22
44309;BME280;30022;55.846;37.340;2023-06-22T11:23:58;47027.00;;;-143.51;74.12
44309;BME280;30022;55.846;37.340;2023-06-22T11:26:24;47032.94;;;-143.51;74.08
44309;BME280;30022;55.846;37.340;2023-06-22T11:28:52;47027.00;;;-143.51;74.70
44309;BME280;30022;55.846;37.340;2023-06-22T11:31:18;47021.09;;;-143.51;74.29
44309;BME280;30022;55.846;37.340;2023-06-22T11:33:43;47050.72;;;-143.51;73.89
44309;BME280;30022;55.846;37.340;2023-06-22T11:36:11;47064.53;;;-143.51;73.93
44309;BME280;30022;55.846;37.340;2023-06-22T11:38:37;47040.84;;;-143.51;73.73
44309;BME280;30022;55.846;37.340;2023-06-22T11:41:07;47036.88;;;-143.51;73.77
44309;BME280;30022;55.846;37.340;2023-06-22T11:43:33;47030.97;;;-143.51;74.28
44309;BME280;30022;55.846;37.340;2023-06-22T11:45:59;47009.22;;;-143.51;74.77
44309;BME280;30022;55.846;37.340;2023-06-22T11:48:25;47094.16;;;-143.51;76.04
44309;BME280;30022;55.846;37.340;2023-06-22T11:50:50;47052.69;;;-143.51;75.68
44309;BME280;30022;55.846;37.340;2023-06-22T11:53:16;47092.19;;;-143.51;76.40
44309;BME280;30022;55.846;37.340;2023-06-22T11:55:43;47064.53;;;-143.51;75.62
44309;BME280;30022;55.846;37.340;2023-06-22T11:58:08;47064.53;;;-143.51;75.70
44309;BME280;30022;55.846;37.340;2023-06-22T12:00:34;47060.59;;;-143.51;75.65
44309;BME280;30022;55.846;37.340;2023-06-22T12:02:59;47060.59;;;-143.51;71.40
44309;BME280;30022;55.846;37.340;2023-06-22T12:05:25;46999.34;;;-143.51;71.82
44309;BME280;30022;55.846;37.340;2023-06-22T12:07:53;47042.81;;;-143.51;71.85
44309;BME280;30022;55.846;37.340;2023-06-22T12:10:19;47025.03;;;-143.51;71.39
44309;BME280;30022;55.846;37.340;2023-06-22T12:12:45;47030.97;;;-143.51;71.32
44309;BME280;30022;55.846;37.340;2023-06-22T12:15:10;47082.31;;;-143.51;70.74
44309;BME280;30022;55.846;37.340;2023-06-22T12:17:36;47070.47;;;-143.51;70.77
44309;BME280;30022;55.846;37.340;2023-06-22T12:20:02;47068.47;;;-143.51;70.23
44309;BME280;30022;55.846;37.340;2023-06-22T12:22:34;47088.22;;;-143.51;68.51
44309;BME280;30022;55.846;37.340;2023-06-22T12:25:00;47094.16;;;-143.51;69.25